Flight Track Log - Related Links

Times and Time Zones

All times are in EDT time to prevent confusion due to time zone crossing. See the EJA846 flight status page for this flight to view local times or setup timezone preferences in your user account.

Time Position Orientation Groundspeed Altitude Reporting Facility
EDT Latitude Longitude Course Direction KTS MPH feet Rate Location/Type
Sat 04:22:48 PM 41.5539 -81.5044 194° South 171 197 1,600  Level Cleveland Center
Sat 04:23:55 PM 41.4994 -81.5231 194° South 250 288 4,700 2,859 Climbing Cleveland Center
Sat 04:24:56 PM 41.4472 -81.5444 197° South 223 257 7,700 3,273 Climbing Cleveland Center
Sat 04:25:56 PM 41.3800 -81.6014 212° Southwest 238 274 11,300 2,824 Climbing Cleveland Center
Sat 04:26:55 PM 41.3150 -81.6642 216° Southwest 269 310 13,300 2,067 Climbing Cleveland Center
Sat 04:27:55 PM 41.2414 -81.7319 215° Southwest 305 351 15,400 2,550 Climbing Cleveland Center
Sat 04:28:55 PM 41.1717 -81.7969 215° Southwest 316 364 18,400 2,628 Climbing Cleveland Center
Sat 04:29:56 PM 41.1064 -81.8589 216° Southwest 323 372 20,700 1,850 Climbing Cleveland Center
Sat 04:30:55 PM 41.0306 -81.9292 215° Southwest 330 380 22,100 1,500 Climbing Cleveland Center
Sat 04:31:56 PM 40.9528 -81.9989 214° Southwest 343 395 23,700 1,600 Climbing Cleveland Center
Sat 04:32:55 PM 40.8683 -82.0686 212° Southwest 349 402 25,300 1,500 Climbing Cleveland Center
Sat 04:34:24 PM 40.7378 -82.1642 209° Southwest 366 421 27,400 1,430 Climbing Indianapolis Center
Sat 04:35:26 PM 40.6464 -82.2308 209° Southwest 371 427 28,900 1,317 Climbing Indianapolis Center
Sat 04:36:27 PM 40.5525 -82.2986 209° Southwest 381 438 30,100 1,122 Climbing Indianapolis Center
Sat 04:37:29 PM 40.4547 -82.3689 209° Southwest 394 453 31,200 1,122 Climbing Indianapolis Center
Sat 04:38:30 PM 40.3558 -82.4403 209° Southwest 401 461 32,400 1,122 Climbing Indianapolis Center
Sat 04:39:32 PM 40.2544 -82.5144 209° Southwest 411 473 33,500 1,122 Climbing Indianapolis Center
Sat 04:40:33 PM 40.1472 -82.5933 209° Southwest 412 474 34,700 1,122 Climbing Indianapolis Center
Sat 04:41:35 PM 40.0564 -82.6814 217° Southwest 404 465 35,800 1,073 Climbing Indianapolis Center
Sat 04:42:36 PM 39.9669 -82.7686 217° Southwest 398 458 36,900 1,073 Climbing Indianapolis Center
Sat 04:43:38 PM 39.8786 -82.8544 217° Southwest 393 452 38,000 1,073 Climbing Indianapolis Center
Sat 04:44:39 PM 39.7944 -82.9383 217° Southwest 379 436 39,100 976 Climbing Indianapolis Center
Sat 04:45:41 PM 39.7122 -83.0167 216° Southwest 363 418 40,000 439 Climbing Indianapolis Center
Sat 04:46:42 PM 39.6294 -83.0978 217° Southwest 366 421 40,000  Level Indianapolis Center
Sat 04:47:44 PM 39.5467 -83.1775 217° Southwest 364 419 40,000  Level Indianapolis Center
Sat 04:48:45 PM 39.4519 -83.2697 217° Southwest 361 415 40,000  Level Indianapolis Center
Sat 04:49:47 PM 39.3706 -83.3481 217° Southwest 361 415 40,000  Level Indianapolis Center
Sat 04:50:48 PM 39.2908 -83.4253 217° Southwest 356 410 40,000  Level Indianapolis Center
Sat 04:51:50 PM 39.2086 -83.5031 216° Southwest 360 414 40,000  Level Indianapolis Center
Sat 04:52:51 PM 39.1289 -83.5808 217° Southwest 357 411 40,000  Level Indianapolis Center
Sat 04:53:53 PM 39.0483 -83.6578 217° Southwest 357 411 40,000  Level Indianapolis Center
Sat 04:54:54 PM 38.9667 -83.7347 216° Southwest 359 413 40,000  Level Indianapolis Center
Sat 04:55:56 PM 38.8858 -83.8108 216° Southwest 357 411 40,000  Level Indianapolis Center
Sat 04:56:57 PM 38.8047 -83.8878 216° Southwest 358 412 40,000  Level Indianapolis Center
Sat 04:57:59 PM 38.7247 -83.9628 216° Southwest 355 409 40,000  Level Indianapolis Center
Sat 04:59:00 PM 38.6364 -84.0456 216° Southwest 357 411 40,000  Level Indianapolis Center
Sat 05:00:02 PM 38.5564 -84.1200 216° Southwest 356 410 40,000  Level Indianapolis Center
Sat 05:01:03 PM 38.4769 -84.1944 216° Southwest 355 409 40,000  Level Indianapolis Center
Sat 05:02:05 PM 38.3969 -84.2703 217° Southwest 358 412 40,000  Level Indianapolis Center
Sat 05:03:06 PM 38.3169 -84.3431 216° Southwest 354 407 40,000  Level Indianapolis Center
Sat 05:04:08 PM 38.2250 -84.4292 216° Southwest 354 407 40,000  Level Indianapolis Center
Sat 05:05:10 PM 38.1456 -84.5006 215° Southwest 351 404 40,000  Level Indianapolis Center
Sat 05:06:11 PM 38.0700 -84.5719 217° Southwest 343 395 40,000  Level Indianapolis Center
Sat 05:07:13 PM 37.9906 -84.6433 215° Southwest 346 398 40,000  Level Indianapolis Center
Sat 05:08:14 PM 37.9117 -84.7167 216° Southwest 349 402 40,000  Level Indianapolis Center
Sat 05:09:16 PM 37.8314 -84.7889 215° Southwest 353 406 40,000  Level Indianapolis Center
Sat 05:10:17 PM 37.7525 -84.8594 215° Southwest 350 403 40,000  Level Indianapolis Center
Sat 05:11:19 PM 37.6625 -84.9428 216° Southwest 345 397 40,000  Level Indianapolis Center
Sat 05:12:20 PM 37.5839 -85.0131 215° Southwest 346 398 40,000  Level Indianapolis Center
Sat 05:13:22 PM 37.5044 -85.0844 215° Southwest 349 402 40,000  Level Indianapolis Center
Sat 05:14:23 PM 37.4261 -85.1556 216° Southwest 347 399 40,000  Level Indianapolis Center
Sat 05:15:25 PM 37.3492 -85.2256 216° Southwest 343 395 40,000  Level Indianapolis Center
Sat 05:16:26 PM 37.2706 -85.2953 215° Southwest 346 398 40,000  Level Indianapolis Center
Sat 05:17:28 PM 37.1931 -85.3644 215° Southwest 341 392 40,000  Level Indianapolis Center
Sat 05:18:29 PM 37.1031 -85.4444 215° Southwest 341 392 40,000  Level Indianapolis Center
Sat 05:19:31 PM 37.0314 -85.5067 215° Southwest 338 389 40,000  Level Indianapolis Center
Sat 05:20:33 PM 36.9542 -85.5756 215° Southwest 339 390 40,000  Level Indianapolis Center
Sat 05:21:34 PM 36.8781 -85.6436 216° Southwest 334 384 40,000  Level Indianapolis Center
Sat 05:22:36 PM 36.8008 -85.7108 215° Southwest 334 384 40,000  Level Indianapolis Center
Sat 05:23:37 PM 36.7172 -85.7853 216° Southwest 332 382 40,000  Level Indianapolis Center
Sat 05:24:39 PM 36.6481 -85.8444 214° Southwest 331 381 40,000  Level Indianapolis Center
Sat 05:25:41 PM 36.5703 -85.9111 215° Southwest 334 384 40,000  Level Indianapolis Center
Sat 05:26:42 PM 36.4822 -85.9883 215° Southwest 329 379 40,000  Level Indianapolis Center
Sat 05:27:44 PM 36.4078 -86.0531 215° Southwest 324 373 40,000  Level Indianapolis Center
Sat 05:28:45 PM 36.3325 -86.1194 215° Southwest 326 375 40,000  Level Indianapolis Center
Sat 05:29:47 PM 36.2558 -86.1839 214° Southwest 329 379 40,000  Level Indianapolis Center
Sat 05:30:48 PM 36.1808 -86.2492 215° Southwest 326 375 40,000  Level Indianapolis Center
Sat 05:31:56 PM 36.0908 -86.3244 214° Southwest 332 382 40,000  Level Memphis Center
Sat 05:32:56 PM 36.0158 -86.3872 214° Southwest 332 382 40,000  Level Memphis Center
Sat 05:33:56 PM 35.9489 -86.4467 216° Southwest 332 382 40,000  Level Memphis Center
Sat 05:34:56 PM 35.8758 -86.5092 215° Southwest 332 382 40,000  Level Memphis Center
Sat 05:35:56 PM 35.8006 -86.5742 215° Southwest 326 375 40,000  Level Memphis Center
Sat 05:37:44 PM 35.6606 -86.6944 215° Southwest 322 371 40,000  Level Atlanta Center
Sat 05:38:20 PM 35.6236 -86.7278 216° Southwest 317 365 40,000  Level Memphis Center
Sat 05:39:20 PM 35.5483 -86.7897 214° Southwest 322 371 40,000  Level Memphis Center
Sat 05:40:20 PM 35.4731 -86.8542 215° Southwest 332 382 40,000  Level Memphis Center
Sat 05:41:20 PM 35.3997 -86.9183 216° Southwest 332 382 40,000  Level Memphis Center
Sat 05:42:20 PM 35.3283 -86.9772 214° Southwest 324 373 40,000  Level Memphis Center
Sat 05:43:20 PM 35.2528 -87.0389 214° Southwest 324 373 40,000  Level Memphis Center
Sat 05:44:20 PM 35.1775 -87.1028 215° Southwest 329 379 40,000  Level Memphis Center
Sat 05:45:20 PM 35.0917 -87.1772 215° Southwest 338 389 40,000  Level Memphis Center
Sat 05:46:20 PM 35.0161 -87.2383 214° Southwest 343 395 40,000  Level Memphis Center
Sat 05:47:20 PM 34.9383 -87.3047 215° Southwest 338 389 40,000  Level Memphis Center
Sat 05:48:20 PM 34.8647 -87.3631 213° Southwest 333 383 40,000  Level Memphis Center
Sat 05:49:20 PM 34.7911 -87.4264 215° Southwest 333 383 40,000  Level Memphis Center
Sat 05:50:20 PM 34.7133 -87.4897 214° Southwest 327 376 40,000  Level Memphis Center
Sat 05:51:20 PM 34.6394 -87.5450 212° Southwest 332 382 40,000  Level Memphis Center
Sat 05:52:20 PM 34.5636 -87.6056 213° Southwest 326 375 40,000  Level Memphis Center
Sat 05:53:20 PM 34.4878 -87.6711 215° Southwest 326 375 40,000  Level Memphis Center
Sat 05:54:20 PM 34.4119 -87.7314 213° Southwest 326 375 40,000  Level Memphis Center
Sat 05:55:20 PM 34.3444 -87.7889 215° Southwest 326 375 40,000  Level Memphis Center
Sat 05:56:20 PM 34.2683 -87.8489 213° Southwest 331 381 40,000  Level Memphis Center
Sat 05:57:20 PM 34.1925 -87.9139 215° Southwest 331 381 40,000  Level Memphis Center
Sat 05:58:20 PM 34.1122 -87.9739 212° Southwest 331 381 40,000  Level Memphis Center
Sat 05:59:20 PM 34.0361 -88.0361 214° Southwest 331 381 40,000  Level Memphis Center
Sat 06:00:20 PM 33.9581 -88.0983 213° Southwest 336 387 40,000  Level Memphis Center
Sat 06:01:20 PM 33.8717 -88.1681 214° Southwest 341 392 40,000  Level Memphis Center
Sat 06:02:20 PM 33.7933 -88.2350 215° Southwest 349 402 40,000  Level Memphis Center
Sat 06:03:20 PM 33.7131 -88.2994 214° Southwest 349 402 40,000  Level Memphis Center
Sat 06:04:20 PM 33.6350 -88.3636 214° Southwest 349 402 40,000  Level Memphis Center
Sat 06:05:20 PM 33.5544 -88.4253 213° Southwest 349 402 40,000  Level Memphis Center
Sat 06:06:20 PM 33.4886 -88.4842 217° Southwest 342 394 40,000  Level Memphis Center
Sat 06:07:20 PM 33.4103 -88.5456 213° Southwest 342 394 40,000  Level Memphis Center
Sat 06:08:20 PM 33.3297 -88.6069 212° Southwest 347 399 40,000  Level Memphis Center
Sat 06:09:20 PM 33.2511 -88.6681 213° Southwest 342 394 40,000  Level Memphis Center
Sat 06:10:20 PM 33.1622 -88.7392 214° Southwest 342 394 40,000  Level Memphis Center
Sat 06:11:20 PM 33.0839 -88.8003 213° Southwest 342 394 40,000  Level Memphis Center
Sat 06:12:20 PM 33.0053 -88.8636 214° Southwest 342 394 40,000  Level Memphis Center
Sat 06:13:20 PM 32.9244 -88.9267 213° Southwest 347 399 40,000  Level Memphis Center
Sat 06:14:20 PM 32.8458 -88.9875 213° Southwest 347 399 40,000  Level Memphis Center
Sat 06:15:20 PM 32.7653 -89.0478 212° Southwest 347 399 40,000  Level Memphis Center
Sat 06:16:20 PM 32.6864 -89.1108 214° Southwest 342 394 40,000  Level Memphis Center
Sat 06:17:20 PM 32.6058 -89.1736 213° Southwest 342 394 40,000  Level Memphis Center
Sat 06:18:20 PM 32.5269 -89.2336 213° Southwest 342 394 40,000  Level Memphis Center
Sat 06:19:20 PM 32.4461 -89.2964 213° Southwest 342 394 40,000  Level Memphis Center
Sat 06:20:20 PM 32.3653 -89.3589 213° Southwest 342 394 40,000  Level Memphis Center
Sat 06:21:20 PM 32.2864 -89.4211 214° Southwest 342 394 40,000  Level Memphis Center
Sat 06:22:20 PM 32.2033 -89.4833 212° Southwest 347 399 40,000  Level Memphis Center
Sat 06:23:20 PM 32.1264 -89.5428 213° Southwest 347 399 40,000  Level Memphis Center
Sat 06:24:20 PM 32.0453 -89.6050 213° Southwest 347 399 40,000  Level Memphis Center
Sat 06:25:55 PM 31.9486 -89.7031 221° Southwest 342 394 40,000  Level Houston Center
Sat 06:26:56 PM 31.8628 -89.7933 222° Southwest 344 396 40,000  Level Houston Center
Sat 06:27:58 PM 31.7894 -89.8686 221° Southwest 348 400 40,000  Level Houston Center
Sat 06:29:00 PM 31.7192 -89.9461 223° Southwest 347 399 40,000  Level Houston Center
Sat 06:30:01 PM 31.6511 -90.0233 224° Southwest 344 396 40,000  Level Houston Center
Sat 06:31:03 PM 31.5831 -90.1008 224° Southwest 342 394 40,000  Level Houston Center
Sat 06:32:04 PM 31.5161 -90.1806 225° Southwest 342 394 40,000  Level Houston Center
Sat 06:33:06 PM 31.4489 -90.2592 225° Southwest 342 394 40,000 -390 Level Houston Center
Sat 06:34:07 PM 31.3692 -90.3519 225° Southwest 339 390 39,200 -1,024 Descending Houston Center
Sat 06:35:09 PM 31.2997 -90.4319 225° Southwest 347 399 37,900 -1,463 Descending Houston Center
Sat 06:36:10 PM 31.2183 -90.5003 216° Southwest 360 414 36,200 -1,707 Descending Houston Center
Sat 06:37:12 PM 31.1283 -90.5558 208° Southwest 364 419 34,400 -1,415 Descending Houston Center
Sat 06:38:13 PM 31.0344 -90.6042 204° Southwest 368 423 33,300 -1,220 Descending Houston Center
Sat 06:39:15 PM 30.9422 -90.6486 202° Southwest 364 419 31,900 -1,512 Descending Houston Center
Sat 06:40:16 PM 30.8472 -90.6908 201° Southwest 364 419 30,200 -1,902 Descending Houston Center
Sat 06:41:18 PM 30.7300 -90.7392 200° South 372 428 28,000 -1,984 Descending Houston Center
Sat 06:42:20 PM 30.6297 -90.7814 200° South 380 437 26,100 -1,854 Descending Houston Center
Sat 06:43:21 PM 30.5411 -90.8356 208° Southwest 364 419 24,200 -2,390 Descending Houston Center
Sat 06:44:23 PM 30.4514 -90.8900 208° Southwest 363 418 21,200 -3,189 Descending Houston Center
Sat 06:45:12 PM 30.3775 -90.9364 208° Southwest 361 415 18,300 -3,358 Descending Houston Center
Sat 06:46:12 PM 30.2867 -90.9900 207° Southwest 342 394 15,100 -2,975 Descending Houston Center
Sat 06:47:13 PM 30.2169 -91.0333 208° Southwest 279 321 12,300 -2,803 Descending Houston Center
Sat 06:48:29 PM 30.1325 -91.0833 207° Southwest 268 308 8,700 -2,926 Descending Houston Center
Sat 06:49:14 PM 30.0850 -91.1144 210° Southwest 264 304 6,400 -2,951 Descending Houston Center
Sat 06:49:30 PM 30.0678 -91.1231 203° Southwest 264 304 5,700 -2,459 Descending Houston Center
Sat 06:50:15 PM 30.0172 -91.1550 209° Southwest 259 298 3,900 -2,032 Descending Houston Center
Sat 06:50:32 PM 30.0056 -91.1603 201° Southwest 259 298 3,600 -900 Descending Houston Center
Sat 06:51:15 PM 29.9636 -91.1878 210° Southwest 223 257 3,000 -689 Descending Houston Center
Sat 06:51:33 PM 29.9514 -91.1950 207° Southwest 242 278 2,900  Descending Houston Center
Sat 06:52:16 PM 29.9078 -91.2208 207° Southwest 215 247 3,000  Climbing Houston Center
Sat 06:52:35 PM 29.9003 -91.2264 213° Southwest 226 260 2,900 -393 Descending Houston Center
Sat 06:53:17 PM 29.8544 -91.2536 207° Southwest 219 252 2,600 -689 Descending Houston Center
Sat 06:53:36 PM 29.8436 -91.2589 203° Southwest 221 254 2,200 -600 Descending Houston Center
Sat 06:54:17 PM 29.8117 -91.3028 230° Southwest 199 229 2,000 -194 Descending Houston Center
Sat 06:54:38 PM 29.7853 -91.3072 188° South 221 254 2,000 -393 Level Houston Center
Sat 06:55:18 PM 29.7814 -91.3514 264° West 187 215 1,600 -238 Descending Houston Center
Sat 06:56:19 PM 29.7539 -91.3428 165° South 163 188 1,600 -347 Level Houston Center
Sat 06:57:19 PM 29.7469 -91.3047 102° East 128 147 900 -397 Descending Houston Center
Sat 06:58:20 PM 29.7258 -91.3006 170° South 125 144 800 -98 Descending Houston Center

Login

Don't have an account? Register now (free) for customized features, flight alerts, and more!